Time;durP1;ratioP1;P1;durP2;ratioP2;P2;SDS_P1;SDS_P2;PMS_P1;PMS_P2;Temp;Humidity;BMP_temperature;BMP_pressure;BME280_temperature;BME280_humidity;BME280_pressure;Samples;Min_cycle;Max_cycle;Signal;HPM_P1;HPM_P2
2021/09/11 00:01:36;;;;;;;5.17;2.90;;;;;;;;;;5069395;28;20189;-61
2021/09/11 00:04:02;;;;;;;4.13;3.20;;;;;;;;;;5061082;28;20635;-62
2021/09/11 00:06:28;;;;;;;3.00;2.70;;;;;;;;;;5068357;28;20195;-61
2021/09/11 00:08:54;;;;;;;4.80;3.20;;;;;;;;;;5067754;28;20666;-61
2021/09/11 00:11:20;;;;;;;2.80;2.60;;;;;;;;;;5070167;28;20260;-61
2021/09/11 00:13:46;;;;;;;3.00;2.70;;;;;;;;;;5066155;28;20202;-62
2021/09/11 00:16:12;;;;;;;3.47;3.17;;;;;;;;;;5068000;28;20180;-61
2021/09/11 00:18:38;;;;;;;2.40;2.20;;;;;;;;;;5057054;28;20172;-61
2021/09/11 00:21:05;;;;;;;3.17;2.70;;;;;;;;;;5070045;28;20174;-61
2021/09/11 00:23:31;;;;;;;2.67;2.47;;;;;;;;;;5068816;28;20220;-61
2021/09/11 00:25:59;;;;;;;3.20;2.60;;;;;;;;;;5068095;28;20189;-61
2021/09/11 00:28:25;;;;;;;3.23;2.93;;;;;;;;;;5070361;28;20210;-61
2021/09/11 00:30:51;;;;;;;3.20;2.90;;;;;;;;;;5063937;28;20200;-61
2021/09/11 00:33:17;;;;;;;2.90;2.70;;;;;;;;;;5060406;28;20647;-61
2021/09/11 00:35:43;;;;;;;2.77;2.57;;;;;;;;;;5068094;28;20178;-62
2021/09/11 00:38:09;;;;;;;3.20;2.93;;;;;;;;;;5068807;28;20193;-61
2021/09/11 00:40:35;;;;;;;2.80;2.60;;;;;;;;;;5062182;28;20276;-61
2021/09/11 00:43:01;;;;;;;2.90;2.70;;;;;;;;;;5067541;28;20185;-62
2021/09/11 00:45:27;;;;;;;3.20;2.90;;;;;;;;;;5066387;28;20189;-62
2021/09/11 00:47:53;;;;;;;3.23;2.93;;;;;;;;;;5070593;28;20177;-61
2021/09/11 00:50:20;;;;;;;2.87;2.60;;;;;;;;;;5056305;28;20199;-62
2021/09/11 00:52:47;;;;;;;4.20;2.87;;;;;;;;;;5061938;28;20181;-61
2021/09/11 00:55:14;;;;;;;4.53;2.83;;;;;;;;;;5068232;28;20263;-61
2021/09/11 00:57:49;;;;;;;4.40;3.07;;;;;;;;;;5068028;28;20282;-61
2021/09/11 01:00:15;;;;;;;3.37;3.03;;;;;;;;;;5064883;28;20181;-62
2021/09/11 01:02:41;;;;;;;3.27;2.93;;;;;;;;;;5062811;28;20182;-61
2021/09/11 01:05:09;;;;;;;3.97;3.13;;;;;;;;;;5066255;28;20632;-62
2021/09/11 01:07:36;;;;;;;2.73;2.53;;;;;;;;;;5058006;28;20177;-62
2021/09/11 01:10:02;;;;;;;3.57;3.27;;;;;;;;;;5065209;28;20671;-61
2021/09/11 01:12:28;;;;;;;3.83;3.40;;;;;;;;;;5062960;28;20184;-61
2021/09/11 01:14:55;;;;;;;3.40;3.10;;;;;;;;;;5066437;28;20188;-61
2021/09/11 01:17:21;;;;;;;2.73;2.53;;;;;;;;;;5068117;28;20197;-61
2021/09/11 01:19:47;;;;;;;3.53;3.23;;;;;;;;;;5065876;28;20840;-61
2021/09/11 01:22:14;;;;;;;3.00;2.80;;;;;;;;;;5067099;28;20185;-61
2021/09/11 01:24:53;;;;;;;3.20;2.90;;;;;;;;;;5063231;28;20525;-61
2021/09/11 01:27:19;;;;;;;3.50;2.80;;;;;;;;;;5057272;28;20222;-61
2021/09/11 01:29:51;;;;;;;3.13;2.93;;;;;;;;;;5060899;28;20200;-62
2021/09/11 01:32:18;;;;;;;3.87;3.20;;;;;;;;;;5069182;28;20250;-61
2021/09/11 01:34:44;;;;;;;4.10;2.87;;;;;;;;;;5059896;28;20197;-61
2021/09/11 01:37:11;;;;;;;3.07;2.87;;;;;;;;;;5068192;28;20219;-61
2021/09/11 01:39:37;;;;;;;3.40;3.10;;;;;;;;;;5064584;28;20176;-61
2021/09/11 01:42:05;;;;;;;3.23;2.93;;;;;;;;;;5055790;28;20200;-61
2021/09/11 01:44:31;;;;;;;3.27;2.97;;;;;;;;;;5061505;28;20267;-62
2021/09/11 01:46:57;;;;;;;3.70;3.40;;;;;;;;;;5068583;28;20176;-61
2021/09/11 01:49:23;;;;;;;3.47;3.17;;;;;;;;;;5065479;28;20205;-62
2021/09/11 01:51:49;;;;;;;3.60;3.30;;;;;;;;;;5065669;28;20202;-61
2021/09/11 01:54:15;;;;;;;5.33;3.73;;;;;;;;;;5065788;28;20187;-61
2021/09/11 01:56:42;;;;;;;3.77;3.47;;;;;;;;;;5056593;28;20177;-61
2021/09/11 01:59:08;;;;;;;3.90;3.50;;;;;;;;;;5063002;28;20183;-62
2021/09/11 02:01:34;;;;;;;3.60;3.30;;;;;;;;;;5064338;28;20250;-61
2021/09/11 02:04:00;;;;;;;3.97;3.40;;;;;;;;;;5055870;28;20604;-61
2021/09/11 02:06:27;;;;;;;4.77;3.60;;;;;;;;;;5063031;28;20188;-61
2021/09/11 02:08:53;;;;;;;3.83;3.40;;;;;;;;;;5060246;28;20221;-61
2021/09/11 02:11:19;;;;;;;4.30;3.30;;;;;;;;;;5064352;28;20553;-61
2021/09/11 02:13:45;;;;;;;3.60;3.33;;;;;;;;;;5057204;28;20518;-61
2021/09/11 02:16:11;;;;;;;4.00;3.70;;;;;;;;;;5063770;28;20633;-62
2021/09/11 02:18:37;;;;;;;4.23;3.93;;;;;;;;;;5064583;28;20701;-61
2021/09/11 02:21:03;;;;;;;4.20;3.80;;;;;;;;;;5065891;28;20172;-62
2021/09/11 02:23:29;;;;;;;4.13;3.80;;;;;;;;;;5068034;28;20175;-62
2021/09/11 02:25:56;;;;;;;4.03;3.73;;;;;;;;;;5066622;28;20628;-62
2021/09/11 02:28:22;;;;;;;4.27;3.97;;;;;;;;;;5067857;28;20705;-62
2021/09/11 02:30:48;;;;;;;3.93;3.63;;;;;;;;;;5067809;28;20638;-62
2021/09/11 02:33:15;;;;;;;5.30;4.27;;;;;;;;;;5067650;28;20197;-62
2021/09/11 02:35:41;;;;;;;4.43;3.87;;;;;;;;;;5065712;28;20242;-62
2021/09/11 02:38:07;;;;;;;4.60;4.17;;;;;;;;;;5067521;28;20238;-62
2021/09/11 02:40:33;;;;;;;4.33;3.93;;;;;;;;;;5065512;28;20195;-60
2021/09/11 02:42:59;;;;;;;4.63;4.28;;;;;;;;;;5066582;28;20429;-61
2021/09/11 02:45:25;;;;;;;4.63;4.23;;;;;;;;;;5067711;28;20263;-61
2021/09/11 02:47:51;;;;;;;4.97;4.57;;;;;;;;;;5067264;28;20187;-61
2021/09/11 02:50:17;;;;;;;4.40;4.00;;;;;;;;;;5066735;28;20591;-61
2021/09/11 02:52:43;;;;;;;4.50;4.20;;;;;;;;;;5066335;28;20559;-61
2021/09/11 02:55:10;;;;;;;5.07;4.67;;;;;;;;;;5065188;28;20189;-60
2021/09/11 02:57:36;;;;;;;4.97;4.57;;;;;;;;;;5064242;28;20668;-60
2021/09/11 03:00:02;;;;;;;5.07;4.57;;;;;;;;;;5063322;28;20186;-61
2021/09/11 03:02:28;;;;;;;6.83;5.33;;;;;;;;;;5065953;28;20183;-62
2021/09/11 03:04:54;;;;;;;4.93;4.40;;;;;;;;;;5063024;28;20181;-62
2021/09/11 03:07:20;;;;;;;5.20;4.70;;;;;;;;;;5055972;28;20169;-62
2021/09/11 03:09:46;;;;;;;5.87;5.37;;;;;;;;;;5057777;28;20231;-62
2021/09/11 03:12:12;;;;;;;6.23;4.93;;;;;;;;;;5062782;28;20178;-62
2021/09/11 03:14:39;;;;;;;5.60;5.10;;;;;;;;;;5064657;28;20610;-62
2021/09/11 03:17:05;;;;;;;17.40;16.40;;;;;;;;;;5068820;28;20172;-62
2021/09/11 03:19:32;;;;;;;6.73;6.20;;;;;;;;;;5066141;28;20524;-62
2021/09/11 03:21:58;;;;;;;6.13;5.50;;;;;;;;;;5070352;28;20184;-62
2021/09/11 03:24:24;;;;;;;6.23;5.63;;;;;;;;;;5061210;28;20189;-61
2021/09/11 03:26:50;;;;;;;7.23;6.30;;;;;;;;;;5066674;28;20181;-62
2021/09/11 03:29:17;;;;;;;7.20;6.50;;;;;;;;;;5076410;28;20209;-62
2021/09/11 03:31:43;;;;;;;21.33;20.23;;;;;;;;;;5070677;28;20209;-62
2021/09/11 03:34:09;;;;;;;7.87;6.33;;;;;;;;;;5069077;28;20551;-62
2021/09/11 03:36:35;;;;;;;7.10;6.50;;;;;;;;;;5070165;28;20181;-62
2021/09/11 03:39:01;;;;;;;7.07;6.37;;;;;;;;;;5069450;28;20264;-61
2021/09/11 03:41:27;;;;;;;7.67;6.97;;;;;;;;;;5068204;28;20181;-62
2021/09/11 03:43:54;;;;;;;7.43;6.83;;;;;;;;;;5070669;28;20188;-62
2021/09/11 03:46:20;;;;;;;7.43;6.83;;;;;;;;;;5070223;28;20169;-62
2021/09/11 03:48:46;;;;;;;7.40;6.80;;;;;;;;;;5067570;28;20192;-62
2021/09/11 03:51:12;;;;;;;8.03;7.33;;;;;;;;;;5068281;28;20172;-62
2021/09/11 03:53:38;;;;;;;8.53;7.70;;;;;;;;;;5069808;28;20898;-62
2021/09/11 03:56:04;;;;;;;8.73;7.90;;;;;;;;;;5069637;28;20296;-60
2021/09/11 03:58:30;;;;;;;7.93;7.23;;;;;;;;;;5067693;28;20655;-62
2021/09/11 04:00:58;;;;;;;9.53;7.80;;;;;;;;;;5068912;28;20212;-61
2021/09/11 04:03:25;;;;;;;9.50;8.70;;;;;;;;;;5059590;28;20185;-62
2021/09/11 04:05:51;;;;;;;8.37;7.67;;;;;;;;;;5067865;28;20181;-62
2021/09/11 04:08:17;;;;;;;8.20;7.43;;;;;;;;;;5068438;28;20187;-62
2021/09/11 04:10:43;;;;;;;9.07;8.17;;;;;;;;;;5062013;28;20648;-62
2021/09/11 04:13:09;;;;;;;8.60;7.87;;;;;;;;;;5067801;28;20180;-62
2021/09/11 04:15:35;;;;;;;9.63;7.93;;;;;;;;;;5064572;28;20180;-60
2021/09/11 04:18:01;;;;;;;8.77;7.97;;;;;;;;;;5070043;28;20569;-60
2021/09/11 04:20:28;;;;;;;9.60;8.57;;;;;;;;;;5066164;28;20211;-61
2021/09/11 04:22:54;;;;;;;9.47;8.57;;;;;;;;;;5066101;28;20188;-61
2021/09/11 04:25:20;;;;;;;12.87;11.93;;;;;;;;;;5064715;28;20184;-61
2021/09/11 04:27:46;;;;;;;9.50;8.63;;;;;;;;;;5067425;28;20280;-61
2021/09/11 04:30:13;;;;;;;9.03;8.20;;;;;;;;;;5062713;28;20192;-61
2021/09/11 04:32:39;;;;;;;9.37;8.47;;;;;;;;;;5068949;28;20204;-61
2021/09/11 04:35:05;;;;;;;8.67;7.87;;;;;;;;;;5062128;28;20203;-61
2021/09/11 04:37:31;;;;;;;8.60;7.80;;;;;;;;;;5069841;28;20643;-61
2021/09/11 04:39:59;;;;;;;9.07;8.17;;;;;;;;;;5063114;28;20220;-60
2021/09/11 04:42:25;;;;;;;9.57;8.67;;;;;;;;;;5065634;28;20298;-60
2021/09/11 04:44:51;;;;;;;10.37;8.37;;;;;;;;;;5067684;28;20249;-60
2021/09/11 04:47:17;;;;;;;8.70;7.90;;;;;;;;;;5069412;28;20191;-60
2021/09/11 04:49:43;;;;;;;8.97;8.17;;;;;;;;;;5067071;28;20238;-61
2021/09/11 04:52:09;;;;;;;8.17;7.47;;;;;;;;;;5068093;28;20208;-61
2021/09/11 04:54:35;;;;;;;8.70;7.90;;;;;;;;;;5061223;28;20183;-61
2021/09/11 04:57:01;;;;;;;9.53;7.93;;;;;;;;;;5065981;28;20183;-60
2021/09/11 04:59:27;;;;;;;9.93;9.07;;;;;;;;;;5069564;28;20376;-60
2021/09/11 05:01:54;;;;;;;12.00;11.10;;;;;;;;;;5069275;28;20173;-60
2021/09/11 05:04:20;;;;;;;8.60;7.80;;;;;;;;;;5065582;28;20177;-61
2021/09/11 05:06:46;;;;;;;7.53;6.83;;;;;;;;;;5064050;28;20195;-61
2021/09/11 05:09:12;;;;;;;7.00;6.37;;;;;;;;;;5051909;28;20318;-61
2021/09/11 05:11:38;;;;;;;7.53;6.50;;;;;;;;;;5054609;28;20229;-61
2021/09/11 05:14:04;;;;;;;7.63;6.83;;;;;;;;;;5063300;28;20230;-60
2021/09/11 05:16:30;;;;;;;6.97;6.27;;;;;;;;;;5067959;28;20222;-61
2021/09/11 05:18:56;;;;;;;6.83;6.23;;;;;;;;;;5061163;28;20187;-60
2021/09/11 05:21:22;;;;;;;7.03;6.10;;;;;;;;;;5063286;28;20204;-61
2021/09/11 05:23:48;;;;;;;7.00;5.83;;;;;;;;;;5063788;28;20177;-61
2021/09/11 05:26:14;;;;;;;6.23;5.70;;;;;;;;;;5063966;28;20178;-61
2021/09/11 05:28:40;;;;;;;6.27;5.67;;;;;;;;;;5061244;28;20176;-61
2021/09/11 05:31:07;;;;;;;6.97;5.90;;;;;;;;;;5067895;28;20204;-60
2021/09/11 05:33:33;;;;;;;6.88;6.28;;;;;;;;;;5066988;28;20487;-61
2021/09/11 05:35:59;;;;;;;6.80;6.20;;;;;;;;;;5067343;28;20510;-61
2021/09/11 05:38:25;;;;;;;7.33;6.57;;;;;;;;;;5066222;28;20199;-60
2021/09/11 05:40:54;;;;;;;6.77;5.90;;;;;;;;;;5067270;28;20633;-61
2021/09/11 05:43:21;;;;;;;6.80;6.20;;;;;;;;;;5065435;28;20206;-61
2021/09/11 05:45:47;;;;;;;6.90;6.20;;;;;;;;;;5066090;28;20183;-60
2021/09/11 05:48:13;;;;;;;6.03;5.50;;;;;;;;;;5067828;28;20174;-60
2021/09/11 05:50:41;;;;;;;6.33;5.73;;;;;;;;;;5065504;28;20240;-60
2021/09/11 05:53:07;;;;;;;6.83;5.23;;;;;;;;;;5067685;28;20209;-60
2021/09/11 05:55:33;;;;;;;5.93;5.40;;;;;;;;;;5063565;28;20172;-61
2021/09/11 05:57:59;;;;;;;6.10;5.53;;;;;;;;;;5063606;28;20183;-61
2021/09/11 06:00:25;;;;;;;5.17;4.73;;;;;;;;;;5067660;28;20710;-61
2021/09/11 06:02:52;;;;;;;5.30;4.80;;;;;;;;;;5076251;28;20257;-61
2021/09/11 06:05:18;;;;;;;7.17;6.50;;;;;;;;;;5054876;28;20186;-61
2021/09/11 06:07:44;;;;;;;5.93;5.43;;;;;;;;;;5056894;28;20204;-61
2021/09/11 06:10:10;;;;;;;6.23;5.57;;;;;;;;;;5065028;28;20270;-61
2021/09/11 06:12:37;;;;;;;6.20;5.13;;;;;;;;;;5065818;28;20655;-61
2021/09/11 06:15:03;;;;;;;5.23;4.73;;;;;;;;;;5067316;28;20248;-61
2021/09/11 06:17:29;;;;;;;5.47;4.70;;;;;;;;;;5067983;28;20856;-61
2021/09/11 06:19:55;;;;;;;5.20;4.70;;;;;;;;;;5065555;28;20210;-61
2021/09/11 06:22:21;;;;;;;7.70;5.50;;;;;;;;;;5066378;28;20239;-61
2021/09/11 06:24:47;;;;;;;4.77;4.30;;;;;;;;;;5065049;28;20186;-61
2021/09/11 06:27:13;;;;;;;5.30;4.80;;;;;;;;;;5064237;28;20199;-61
2021/09/11 06:29:39;;;;;;;4.47;4.07;;;;;;;;;;5062099;28;20240;-61
2021/09/11 06:32:06;;;;;;;4.73;4.20;;;;;;;;;;5061215;28;20196;-61
2021/09/11 06:34:32;;;;;;;4.50;4.10;;;;;;;;;;5065462;28;20180;-61
2021/09/11 06:36:58;;;;;;;4.93;4.53;;;;;;;;;;5064838;28;20495;-61
2021/09/11 06:39:25;;;;;;;4.50;4.10;;;;;;;;;;5061141;28;20270;-61
2021/09/11 06:41:52;;;;;;;4.97;4.33;;;;;;;;;;5059264;28;20249;-61
2021/09/11 06:44:18;;;;;;;4.93;4.53;;;;;;;;;;5058682;28;20185;-61
2021/09/11 06:46:44;;;;;;;5.27;4.87;;;;;;;;;;5065328;28;20188;-61
2021/09/11 06:49:10;;;;;;;4.30;4.00;;;;;;;;;;5063822;28;20220;-61
2021/09/11 06:51:36;;;;;;;4.27;3.97;;;;;;;;;;5066563;28;20177;-61
2021/09/11 06:54:02;;;;;;;5.50;4.17;;;;;;;;;;5074331;28;20190;-61
2021/09/11 06:56:28;;;;;;;6.07;4.17;;;;;;;;;;5070690;28;20263;-61
2021/09/11 06:58:54;;;;;;;4.63;4.23;;;;;;;;;;5069386;28;20181;-61
2021/09/11 07:01:23;;;;;;;4.07;3.77;;;;;;;;;;5068987;28;20179;-61
2021/09/11 07:03:49;;;;;;;4.70;4.10;;;;;;;;;;5065609;28;20297;-61
2021/09/11 07:06:16;;;;;;;4.40;4.07;;;;;;;;;;5069052;28;20180;-61
2021/09/11 07:08:45;;;;;;;4.23;3.80;;;;;;;;;;5074748;28;20286;-61
2021/09/11 07:11:12;;;;;;;4.50;3.80;;;;;;;;;;5061856;28;20635;-61
2021/09/11 07:13:38;;;;;;;4.10;3.70;;;;;;;;;;5066081;28;20180;-61
2021/09/11 07:16:05;;;;;;;5.23;3.73;;;;;;;;;;5065553;28;20192;-61
2021/09/11 07:18:32;;;;;;;5.27;4.13;;;;;;;;;;5062734;28;20189;-61
2021/09/11 07:20:58;;;;;;;4.20;3.60;;;;;;;;;;5067148;28;20196;-61
2021/09/11 07:23:25;;;;;;;3.93;3.40;;;;;;;;;;5068170;28;20249;-61
2021/09/11 07:25:51;;;;;;;3.90;3.60;;;;;;;;;;5063237;28;20186;-61
2021/09/11 07:28:17;;;;;;;3.80;3.50;;;;;;;;;;5064956;28;20181;-61
2021/09/11 07:30:44;;;;;;;4.00;3.70;;;;;;;;;;5065425;28;20204;-61
2021/09/11 07:33:10;;;;;;;3.40;3.20;;;;;;;;;;5082085;28;21251;-61
2021/09/11 07:35:36;;;;;;;3.80;3.50;;;;;;;;;;5067988;28;20177;-61
2021/09/11 07:38:06;;;;;;;4.63;4.23;;;;;;;;;;5065250;28;20202;-62
2021/09/11 07:40:32;;;;;;;4.40;4.00;;;;;;;;;;5065124;28;20188;-62
2021/09/11 07:42:59;;;;;;;3.93;3.63;;;;;;;;;;5069350;28;20263;-61
2021/09/11 07:45:25;;;;;;;3.23;2.97;;;;;;;;;;5067479;28;20192;-61
2021/09/11 07:47:52;;;;;;;3.97;3.57;;;;;;;;;;5066024;28;20172;-62
2021/09/11 07:50:25;;;;;;;3.50;3.20;;;;;;;;;;5085033;28;20199;-62
2021/09/11 07:52:54;;;;;;;3.10;2.90;;;;;;;;;;5060966;28;20164;-61
2021/09/11 07:55:22;;;;;;;5.90;3.80;;;;;;;;;;5062677;28;20269;-63
2021/09/11 07:57:49;;;;;;;3.43;3.10;;;;;;;;;;5070308;28;20204;-62
2021/09/11 08:00:18;;;;;;;4.03;3.23;;;;;;;;;;5068295;28;20172;-60
2021/09/11 08:02:45;;;;;;;4.70;3.23;;;;;;;;;;5082611;28;20200;-60
2021/09/11 08:05:12;;;;;;;3.97;3.40;;;;;;;;;;5062026;28;21148;-61
2021/09/11 08:07:39;;;;;;;4.30;3.70;;;;;;;;;;5070359;28;20521;-62
2021/09/11 08:10:08;;;;;;;5.70;3.60;;;;;;;;;;5066544;28;20224;-62
2021/09/11 08:12:35;;;;;;;4.90;3.20;;;;;;;;;;5065142;28;20203;-61
2021/09/11 08:15:01;;;;;;;3.60;3.30;;;;;;;;;;5065615;28;20675;-61
2021/09/11 08:17:27;;;;;;;3.63;3.33;;;;;;;;;;5065999;28;20217;-61
2021/09/11 08:19:56;;;;;;;4.17;3.70;;;;;;;;;;5067236;28;20200;-61
2021/09/11 08:22:22;;;;;;;3.27;3.00;;;;;;;;;;5060977;28;20186;-61
2021/09/11 08:24:48;;;;;;;4.00;3.60;;;;;;;;;;5059680;28;20178;-61
2021/09/11 08:27:17;;;;;;;3.40;3.20;;;;;;;;;;5062666;28;20197;-62
2021/09/11 08:29:47;;;;;;;3.47;3.17;;;;;;;;;;5064202;28;20218;-61
2021/09/11 08:32:13;;;;;;;3.30;3.00;;;;;;;;;;5066589;28;20206;-61
2021/09/11 08:34:42;;;;;;;3.23;3.00;;;;;;;;;;5064550;28;20516;-61
2021/09/11 08:37:09;;;;;;;3.53;3.23;;;;;;;;;;5059111;28;20177;-61
2021/09/11 08:39:35;;;;;;;4.13;3.10;;;;;;;;;;5064237;28;20191;-60
2021/09/11 08:42:01;;;;;;;2.93;2.73;;;;;;;;;;5061574;28;20684;-60
2021/09/11 08:44:27;;;;;;;3.77;2.90;;;;;;;;;;5065749;28;20228;-60
2021/09/11 08:46:54;;;;;;;3.47;3.17;;;;;;;;;;5065987;28;20181;-60
2021/09/11 08:49:20;;;;;;;3.10;2.87;;;;;;;;;;5061517;28;20220;-60
2021/09/11 08:51:46;;;;;;;3.03;2.83;;;;;;;;;;5060688;28;20180;-60
2021/09/11 08:54:18;;;;;;;4.00;3.57;;;;;;;;;;5065395;28;20181;-60
2021/09/11 08:56:45;;;;;;;4.23;3.17;;;;;;;;;;5066923;28;20172;-60
2021/09/11 08:59:12;;;;;;;3.67;3.30;;;;;;;;;;5068474;28;20161;-60
2021/09/11 09:01:39;;;;;;;3.60;3.17;;;;;;;;;;5059991;28;20177;-60
2021/09/11 09:04:05;;;;;;;3.73;3.03;;;;;;;;;;5061488;28;20640;-59
2021/09/11 09:06:32;;;;;;;5.80;3.07;;;;;;;;;;5065870;28;20180;-59
2021/09/11 09:09:06;;;;;;;3.80;3.40;;;;;;;;;;5057341;28;20218;-59
2021/09/11 09:11:33;;;;;;;3.43;2.73;;;;;;;;;;5066890;28;20276;-58
2021/09/11 09:14:07;;;;;;;3.83;3.10;;;;;;;;;;5060171;28;20187;-61
2021/09/11 09:16:34;;;;;;;5.63;3.80;;;;;;;;;;5062487;28;20272;-61
2021/09/11 09:19:05;;;;;;;6.27;3.50;;;;;;;;;;5067434;28;20523;-60
2021/09/11 09:21:32;;;;;;;4.33;3.10;;;;;;;;;;5068185;28;20275;-59
2021/09/11 09:24:00;;;;;;;3.17;2.97;;;;;;;;;;5063492;28;20206;-59
2021/09/11 09:26:27;;;;;;;6.43;4.10;;;;;;;;;;5068614;28;20172;-60
2021/09/11 09:29:04;;;;;;;4.00;3.30;;;;;;;;;;5065907;28;20200;-59
2021/09/11 09:31:31;;;;;;;4.00;3.33;;;;;;;;;;5069006;28;20184;-59
2021/09/11 09:33:57;;;;;;;4.00;3.60;;;;;;;;;;5066728;28;20271;-59
2021/09/11 09:36:28;;;;;;;4.97;3.60;;;;;;;;;;5066137;28;20184;-59
2021/09/11 09:39:02;;;;;;;4.30;3.53;;;;;;;;;;5066418;28;20256;-59
2021/09/11 09:41:41;;;;;;;5.03;2.83;;;;;;;;;;5064933;28;20185;-59
2021/09/11 09:44:07;;;;;;;3.20;2.90;;;;;;;;;;5064297;28;20611;-59
2021/09/11 09:46:37;;;;;;;4.00;3.17;;;;;;;;;;5061372;28;20184;-59
2021/09/11 09:49:04;;;;;;;3.50;3.13;;;;;;;;;;5066848;28;20534;-59
2021/09/11 09:51:32;;;;;;;3.57;3.17;;;;;;;;;;5064324;28;20207;-59
2021/09/11 09:54:00;;;;;;;5.63;3.13;;;;;;;;;;5065850;28;20173;-59
2021/09/11 09:56:29;;;;;;;3.63;2.67;;;;;;;;;;5066872;28;20180;-59
2021/09/11 09:58:56;;;;;;;3.90;2.90;;;;;;;;;;5049223;28;20235;-59
2021/09/11 10:01:22;;;;;;;3.40;3.10;;;;;;;;;;5076809;28;20194;-59
2021/09/11 10:03:48;;;;;;;3.10;2.90;;;;;;;;;;5078545;28;20192;-59
2021/09/11 10:06:18;;;;;;;3.80;3.10;;;;;;;;;;5065046;28;20217;-60
2021/09/11 10:08:47;;;;;;;4.20;3.17;;;;;;;;;;5066069;28;20576;-60
2021/09/11 10:11:13;;;;;;;4.77;2.87;;;;;;;;;;5067805;28;20210;-60
2021/09/11 10:13:40;;;;;;;6.73;3.40;;;;;;;;;;5053127;28;20175;-60
2021/09/11 10:16:10;;;;;;;3.10;2.90;;;;;;;;;;5063233;28;20329;-59
2021/09/11 10:18:37;;;;;;;3.20;2.90;;;;;;;;;;5067801;28;20631;-60
2021/09/11 10:21:13;;;;;;;3.40;3.13;;;;;;;;;;5063277;28;20215;-60
2021/09/11 10:23:40;;;;;;;5.18;3.67;;;;;;;;;;5064054;28;20501;-59
2021/09/11 10:26:06;;;;;;;8.33;4.10;;;;;;;;;;5067804;28;20176;-59
2021/09/11 10:28:33;;;;;;;4.07;3.17;;;;;;;;;;5058192;28;20260;-59
2021/09/11 10:31:08;;;;;;;3.90;3.50;;;;;;;;;;5080799;28;20750;-59
2021/09/11 10:33:42;;;;;;;6.90;4.23;;;;;;;;;;5069888;28;20675;-59
2021/09/11 10:36:31;;;;;;;4.33;3.87;;;;;;;;;;5068798;28;20167;-59
2021/09/11 10:39:07;;;;;;;3.63;3.33;;;;;;;;;;5065391;28;20182;-59
2021/09/11 10:41:34;;;;;;;4.30;3.47;;;;;;;;;;5051515;28;20177;-59
2021/09/11 10:44:07;;;;;;;6.87;4.07;;;;;;;;;;5068224;28;20884;-60
2021/09/11 10:46:47;;;;;;;5.53;3.63;;;;;;;;;;5083927;28;20916;-60
2021/09/11 10:49:25;;;;;;;5.23;4.00;;;;;;;;;;5068765;28;20187;-60
2021/09/11 10:52:11;;;;;;;5.03;3.70;;;;;;;;;;5070063;28;20539;-59
2021/09/11 10:54:37;;;;;;;4.50;3.73;;;;;;;;;;5067107;28;20598;-59
2021/09/11 10:57:06;;;;;;;4.50;4.10;;;;;;;;;;5071336;28;20302;-59
2021/09/11 10:59:33;;;;;;;5.13;4.17;;;;;;;;;;5069557;28;20212;-60
2021/09/11 11:01:59;;;;;;;5.17;3.40;;;;;;;;;;5069464;28;20272;-59
2021/09/11 11:04:28;;;;;;;21.33;6.97;;;;;;;;;;5068523;28;20743;-59
2021/09/11 11:06:55;;;;;;;30.47;7.10;;;;;;;;;;5067214;28;20173;-60
2021/09/11 11:09:21;;;;;;;69.13;9.87;;;;;;;;;;5069480;28;20236;-60
2021/09/11 11:11:48;;;;;;;10.90;4.33;;;;;;;;;;5068763;28;20170;-60
2021/09/11 11:14:15;;;;;;;21.10;5.00;;;;;;;;;;5067220;28;20180;-60
2021/09/11 11:16:45;;;;;;;4.33;3.10;;;;;;;;;;5069442;28;20177;-60
2021/09/11 11:19:18;;;;;;;8.10;3.87;;;;;;;;;;5068826;28;20264;-60
2021/09/11 11:21:51;;;;;;;9.47;3.70;;;;;;;;;;5068827;28;20177;-60
2021/09/11 11:24:18;;;;;;;4.73;3.33;;;;;;;;;;5059861;28;20164;-60
2021/09/11 11:26:44;;;;;;;5.30;3.10;;;;;;;;;;5064325;28;20635;-60
2021/09/11 11:29:11;;;;;;;5.77;3.17;;;;;;;;;;5070075;28;20184;-60
2021/09/11 11:31:44;;;;;;;4.20;3.80;;;;;;;;;;5067700;28;20564;-57
2021/09/11 11:34:12;;;;;;;3.40;3.10;;;;;;;;;;5070432;28;20181;-57
2021/09/11 11:36:46;;;;;;;4.50;4.00;;;;;;;;;;5063532;28;20641;-59
2021/09/11 11:39:26;;;;;;;4.00;3.70;;;;;;;;;;5063364;28;20261;-59
2021/09/11 11:41:55;;;;;;;4.63;3.43;;;;;;;;;;5061225;28;20192;-59
2021/09/11 11:44:22;;;;;;;5.93;4.40;;;;;;;;;;5072914;28;20598;-59
2021/09/11 11:46:51;;;;;;;5.40;4.43;;;;;;;;;;5079964;28;20176;-59
2021/09/11 11:49:18;;;;;;;4.37;3.77;;;;;;;;;;5067834;28;20528;-59
2021/09/11 11:51:50;;;;;;;4.30;3.90;;;;;;;;;;5068485;28;20192;-59
2021/09/11 11:54:16;;;;;;;4.40;4.00;;;;;;;;;;5068099;28;20220;-60
2021/09/11 11:56:47;;;;;;;5.00;4.53;;;;;;;;;;5067856;28;20642;-59
2021/09/11 11:59:13;;;;;;;5.07;4.30;;;;;;;;;;5076471;28;20582;-59
2021/09/11 12:01:39;;;;;;;4.13;3.53;;;;;;;;;;5083858;28;20242;-59
2021/09/11 12:04:15;;;;;;;6.67;4.97;;;;;;;;;;5071671;28;20639;-59
2021/09/11 12:06:47;;;;;;;4.60;4.13;;;;;;;;;;5068535;28;20176;-59
2021/09/11 12:09:15;;;;;;;4.40;4.00;;;;;;;;;;5051093;28;20217;-59
2021/09/11 12:11:41;;;;;;;5.90;4.40;;;;;;;;;;5068393;28;20195;-60
2021/09/11 12:14:08;;;;;;;4.50;4.10;;;;;;;;;;5068401;28;20272;-60
2021/09/11 12:16:35;;;;;;;4.13;3.83;;;;;;;;;;5072775;28;20683;-59
2021/09/11 12:19:11;;;;;;;5.40;4.10;;;;;;;;;;5067236;28;20664;-59
2021/09/11 12:21:37;;;;;;;3.90;3.60;;;;;;;;;;5058077;28;20199;-59
2021/09/11 12:24:03;;;;;;;5.87;4.80;;;;;;;;;;5069245;28;20267;-59
2021/09/11 12:26:31;;;;;;;6.50;4.07;;;;;;;;;;5069898;28;20556;-59
2021/09/11 12:29:07;;;;;;;5.00;3.93;;;;;;;;;;5070424;28;20208;-59
2021/09/11 12:31:33;;;;;;;4.37;3.97;;;;;;;;;;5070259;28;20187;-59
2021/09/11 12:33:59;;;;;;;6.07;5.47;;;;;;;;;;5069042;28;20178;-59
2021/09/11 12:36:29;;;;;;;6.53;5.60;;;;;;;;;;5067354;28;20190;-59
2021/09/11 12:38:56;;;;;;;5.77;5.17;;;;;;;;;;5070326;28;20206;-59
2021/09/11 12:41:22;;;;;;;6.30;5.30;;;;;;;;;;5080686;28;20179;-60
2021/09/11 12:43:48;;;;;;;10.13;4.70;;;;;;;;;;5069905;28;20244;-60
2021/09/11 12:46:29;;;;;;;5.83;5.33;;;;;;;;;;5069412;28;20184;-60
2021/09/11 12:48:56;;;;;;;5.80;4.37;;;;;;;;;;5069469;28;20188;-60
2021/09/11 12:51:22;;;;;;;4.77;4.37;;;;;;;;;;5067784;28;20625;-60
2021/09/11 12:53:48;;;;;;;4.70;4.30;;;;;;;;;;5069528;28;20181;-60
2021/09/11 12:56:21;;;;;;;6.67;4.63;;;;;;;;;;5068295;28;20180;-60
2021/09/11 12:58:47;;;;;;;4.07;3.77;;;;;;;;;;5069953;28;20192;-60
2021/09/11 13:01:13;;;;;;;4.30;4.00;;;;;;;;;;5068960;28;20208;-60
2021/09/11 13:03:39;;;;;;;3.73;3.43;;;;;;;;;;5070086;28;20174;-60
2021/09/11 13:06:05;;;;;;;5.73;4.73;;;;;;;;;;5067483;28;20191;-60
2021/09/11 13:08:32;;;;;;;5.00;4.50;;;;;;;;;;5053974;28;20398;-60
2021/09/11 13:10:58;;;;;;;4.97;4.47;;;;;;;;;;5068063;28;20300;-60
2021/09/11 13:13:24;;;;;;;6.23;5.03;;;;;;;;;;5068078;28;20262;-60
2021/09/11 13:15:50;;;;;;;6.10;4.80;;;;;;;;;;5069214;28;20189;-60
2021/09/11 13:18:16;;;;;;;6.70;4.83;;;;;;;;;;5067763;28;20188;-60
2021/09/11 13:20:43;;;;;;;10.97;5.93;;;;;;;;;;5067969;28;20195;-60
2021/09/11 13:23:09;;;;;;;7.97;5.60;;;;;;;;;;5068259;28;20183;-60
2021/09/11 13:25:35;;;;;;;5.33;4.60;;;;;;;;;;5064728;28;20196;-60
2021/09/11 13:28:01;;;;;;;5.77;5.00;;;;;;;;;;5067564;28;20180;-60
2021/09/11 13:30:27;;;;;;;5.23;4.33;;;;;;;;;;5066264;28;20215;-60
2021/09/11 13:32:53;;;;;;;5.00;4.50;;;;;;;;;;5067941;28;20635;-60
2021/09/11 13:35:19;;;;;;;5.87;3.80;;;;;;;;;;5068699;28;20676;-60
2021/09/11 13:37:46;;;;;;;5.03;3.77;;;;;;;;;;5066823;28;20173;-60
2021/09/11 13:40:13;;;;;;;4.90;3.90;;;;;;;;;;5063434;28;20276;-60
2021/09/11 13:42:39;;;;;;;5.77;4.37;;;;;;;;;;5062292;28;20221;-60
2021/09/11 13:45:06;;;;;;;4.50;3.97;;;;;;;;;;5068568;28;20649;-61
2021/09/11 13:47:32;;;;;;;6.00;4.30;;;;;;;;;;5060250;28;20177;-60
2021/09/11 13:49:58;;;;;;;4.47;4.00;;;;;;;;;;5063053;28;20724;-61
2021/09/11 13:52:24;;;;;;;4.17;3.77;;;;;;;;;;5067587;28;20230;-60
2021/09/11 13:54:50;;;;;;;3.80;3.20;;;;;;;;;;5067283;28;20180;-60
2021/09/11 13:57:16;;;;;;;3.75;3.45;;;;;;;;;;5067386;28;20757;-60
2021/09/11 13:59:42;;;;;;;6.40;5.90;;;;;;;;;;5061497;28;20177;-60
2021/09/11 14:02:09;;;;;;;4.33;4.03;;;;;;;;;;5067046;28;20207;-61
2021/09/11 14:04:35;;;;;;;3.27;2.97;;;;;;;;;;5068506;28;20256;-61
2021/09/11 14:07:01;;;;;;;3.50;3.03;;;;;;;;;;5067832;28;20181;-60
2021/09/11 14:09:27;;;;;;;3.30;3.00;;;;;;;;;;5067838;28;20270;-60
2021/09/11 14:11:54;;;;;;;3.30;3.00;;;;;;;;;;5068509;28;20188;-60
2021/09/11 14:14:20;;;;;;;4.17;2.80;;;;;;;;;;5067564;28;20195;-61
2021/09/11 14:16:46;;;;;;;4.03;2.87;;;;;;;;;;5079502;28;20177;-61
2021/09/11 14:19:13;;;;;;;3.53;3.23;;;;;;;;;;5062719;28;20604;-61
2021/09/11 14:21:39;;;;;;;3.43;3.13;;;;;;;;;;5079893;28;20547;-61
2021/09/11 14:24:05;;;;;;;4.30;3.77;;;;;;;;;;5068841;28;20245;-61
2021/09/11 14:26:31;;;;;;;4.23;3.80;;;;;;;;;;5067746;28;20555;-61
2021/09/11 14:28:59;;;;;;;3.70;3.07;;;;;;;;;;5061122;28;20179;-61
2021/09/11 14:31:28;;;;;;;3.50;3.10;;;;;;;;;;5062184;28;20275;-61
2021/09/11 14:33:55;;;;;;;3.80;3.33;;;;;;;;;;5058175;28;20177;-61
2021/09/11 14:36:21;;;;;;;4.70;3.20;;;;;;;;;;5053882;28;20177;-61
2021/09/11 14:38:47;;;;;;;3.20;3.00;;;;;;;;;;5065766;28;20244;-61
2021/09/11 14:41:14;;;;;;;3.40;2.80;;;;;;;;;;5059602;28;20571;-62
2021/09/11 14:43:40;;;;;;;6.97;3.93;;;;;;;;;;5056604;28;20186;-61